Climatologie pour Saint-Brevin les Pins
Jour • Résumé pour avril 1, 2017 Système :  Métrique    Anglais   Mixte
« - 1 jour
+ 1 jour »
Jour Semaine Mois Année Personnalisé
  Maximum : Minimum : Moyenne :
Température sous abri : 14.7 °C 8.9 °C 11.9 °C
Point de rosée : 11.1 °C 7.8 °C 9.6 °C
Humidité : 94 % 74 % 86 %
Vitesse du vent : 35.4 km/h 0.0 km/h 9.1 km/h
Rafale : 35.4 km/h - -
Direction :- - West
Pression : 1017.2 hPa 1011.1 hPa -
Précipitations : 0.5 mm    
Historical Graphs
 
 
Tableau de données pour avril 1, 2017
Heure Tempé Pt rosée Pression Vent Vitesse Rafale Humidité Taux pluie (/hr) Soleil
00:05 11.4 °C 10.0 °C 1012.8 hPa SW 16.1 km/h 19.3 km/h 91 % 0.0 mm 0 W/m2
00:10 11.4 °C 10.0 °C 1012.8 hPa SW 6.4 km/h 27.4 km/h 91 % 0.3 mm 0 W/m2
00:15 11.0 °C 9.3 °C 1012.8 hPa SSW 3.2 km/h 27.4 km/h 89 % 0.3 mm 0 W/m2
00:20 10.6 °C 9.0 °C 1012.8 hPa SW 3.2 km/h 17.7 km/h 90 % 0.3 mm 0 W/m2
00:25 10.4 °C 8.9 °C 1012.8 hPa SSW 8.0 km/h 17.7 km/h 90 % 0.3 mm 0 W/m2
00:30 10.4 °C 8.7 °C 1012.8 hPa SW 12.9 km/h 20.9 km/h 89 % 0.3 mm 0 W/m2
00:40 10.5 °C 8.4 °C 1012.8 hPa WSW 17.7 km/h 20.9 km/h 87 % 0.3 mm 0 W/m2
00:45 10.5 °C 8.3 °C 1012.8 hPa WSW 11.3 km/h 19.3 km/h 86 % 0.3 mm 0 W/m2
00:50 10.4 °C 8.0 °C 1012.8 hPa WSW 8.0 km/h 22.5 km/h 85 % 0.3 mm 0 W/m2
00:55 10.4 °C 8.0 °C 1012.8 hPa West 11.3 km/h 22.5 km/h 85 % 0.3 mm 0 W/m2
01:00 10.3 °C 8.1 °C 1012.8 hPa WSW 12.9 km/h 22.5 km/h 86 % 0.3 mm 0 W/m2
01:05 10.3 °C 8.3 °C 1012.8 hPa WSW 6.4 km/h 22.5 km/h 87 % 0.3 mm 0 W/m2
01:15 10.2 °C 8.3 °C 1012.4 hPa SSW 3.2 km/h 17.7 km/h 88 % 0.0 mm 0 W/m2
01:20 10.3 °C 8.4 °C 1012.4 hPa West 8.0 km/h 19.3 km/h 88 % 0.0 mm 0 W/m2
01:25 10.2 °C 8.3 °C 1012.4 hPa WSW 4.8 km/h 19.3 km/h 88 % 0.0 mm 0 W/m2
01:30 10.2 °C 8.5 °C 1012.4 hPa WSW 3.2 km/h 17.7 km/h 89 % 0.0 mm 0 W/m2
01:35 10.2 °C 8.5 °C 1012.4 hPa SSW 3.2 km/h 14.5 km/h 89 % 0.0 mm 0 W/m2
01:40 10.2 °C 8.7 °C 1012.4 hPa WSW 1.6 km/h 14.5 km/h 90 % 0.0 mm 0 W/m2
01:45 10.3 °C 8.7 °C 1012.4 hPa SSW 4.8 km/h 8.0 km/h 90 % 0.0 mm 0 W/m2
01:50 10.1 °C 8.5 °C 1012.4 hPa SSW 3.2 km/h 11.3 km/h 90 % 0.0 mm 0 W/m2
01:55 10.1 °C 8.7 °C 1012.4 hPa SSW 3.2 km/h 12.9 km/h 91 % 0.0 mm 0 W/m2
02:00 10.3 °C 8.9 °C 1012.4 hPa West 6.4 km/h 12.9 km/h 91 % 0.0 mm 0 W/m2
02:05 10.3 °C 8.9 °C 1012.1 hPa WSW 4.8 km/h 12.9 km/h 91 % 0.0 mm 0 W/m2
02:10 10.6 °C 9.1 °C 1012.1 hPa WSW 1.6 km/h 12.9 km/h 91 % 0.0 mm 0 W/m2
02:15 10.4 °C 9.0 °C 1012.1 hPa WSW 3.2 km/h 12.9 km/h 91 % 0.0 mm 0 W/m2
02:20 10.4 °C 9.2 °C 1012.1 hPa South 3.2 km/h 9.7 km/h 92 % 0.0 mm 0 W/m2
02:25 10.5 °C 9.3 °C 1012.1 hPa SSW 1.6 km/h 9.7 km/h 92 % 0.0 mm 0 W/m2
02:30 10.6 °C 9.3 °C 1012.1 hPa WSW 3.2 km/h 14.5 km/h 92 % 0.0 mm 0 W/m2
02:35 10.6 °C 9.3 °C 1012.1 hPa SSW 3.2 km/h 14.5 km/h 92 % 0.0 mm 0 W/m2
02:40 10.6 °C 9.3 °C 1012.1 hPa SW 1.6 km/h 11.3 km/h 92 % 0.0 mm 0 W/m2
02:45 10.6 °C 9.5 °C 1012.1 hPa South 6.4 km/h 11.3 km/h 93 % 0.0 mm 0 W/m2
02:50 10.7 °C 9.6 °C 1012.1 hPa WSW 8.0 km/h 12.9 km/h 93 % 0.0 mm 0 W/m2
02:55 10.6 °C 9.5 °C 1012.1 hPa West 3.2 km/h 12.9 km/h 93 % 0.0 mm 0 W/m2
03:00 10.6 °C 9.5 °C 1012.1 hPa West 4.8 km/h 12.9 km/h 93 % 0.0 mm 0 W/m2
03:05 10.6 °C 9.5 °C 1012.1 hPa West 4.8 km/h 16.1 km/h 93 % 0.0 mm 0 W/m2
03:10 10.6 °C 9.5 °C 1012.1 hPa WSW 8.0 km/h 16.1 km/h 93 % 0.0 mm 0 W/m2
03:15 10.7 °C 9.6 °C 1012.1 hPa WSW 17.7 km/h 17.7 km/h 93 % 0.0 mm 0 W/m2
03:20 10.7 °C 9.6 °C 1012.1 hPa SSW 11.3 km/h 17.7 km/h 93 % 0.0 mm 0 W/m2
03:25 10.7 °C 9.6 °C 1012.1 hPa WSW 8.0 km/h 17.7 km/h 93 % 0.0 mm 0 W/m2
03:30 10.8 °C 9.7 °C 1011.7 hPa West 14.5 km/h 20.9 km/h 93 % 0.0 mm 0 W/m2
03:35 10.9 °C 9.9 °C 1012.1 hPa WSW 3.2 km/h 20.9 km/h 93 % 0.0 mm 0 W/m2
03:40 11.1 °C 10.0 °C 1011.7 hPa SW 8.0 km/h 16.1 km/h 93 % 0.0 mm 0 W/m2
03:45 11.1 °C 10.0 °C 1011.7 hPa WSW 6.4 km/h 16.1 km/h 93 % 0.0 mm 0 W/m2
03:50 11.1 °C 10.0 °C 1011.7 hPa WSW 6.4 km/h 14.5 km/h 93 % 0.0 mm 0 W/m2
03:55 11.1 °C 10.0 °C 1011.7 hPa SW 4.8 km/h 16.1 km/h 93 % 0.0 mm 0 W/m2
04:00 11.0 °C 9.9 °C 1011.7 hPa West 4.8 km/h 16.1 km/h 93 % 0.0 mm 0 W/m2
04:05 10.9 °C 9.9 °C 1011.7 hPa WSW 11.3 km/h 16.1 km/h 93 % 0.0 mm 0 W/m2
04:10 10.9 °C 9.8 °C 1012.1 hPa West 1.6 km/h 16.1 km/h 93 % 0.0 mm 0 W/m2
04:15 10.8 °C 9.7 °C 1011.7 hPa Calm   14.5 km/h 93 % 0.0 mm 0 W/m2
04:20 10.8 °C 9.7 °C 1011.7 hPa WSW 12.9 km/h 14.5 km/h 93 % 0.0 mm 0 W/m2
04:25 10.8 °C 9.7 °C 1011.7 hPa SW 4.8 km/h 17.7 km/h 93 % 0.0 mm 0 W/m2
04:30 10.9 °C 9.8 °C 1011.7 hPa SW 6.4 km/h 17.7 km/h 93 % 0.0 mm 0 W/m2
04:35 10.9 °C 9.9 °C 1011.7 hPa SW 11.3 km/h 17.7 km/h 93 % 0.0 mm 0 W/m2
04:40 11.0 °C 9.9 °C 1011.7 hPa West 8.0 km/h 17.7 km/h 93 % 0.0 mm 0 W/m2
04:45 11.1 °C 10.0 °C 1011.7 hPa WSW 11.3 km/h 19.3 km/h 93 % 0.0 mm 0 W/m2
04:50 11.1 °C 9.8 °C 1011.7 hPa WNW 4.8 km/h 20.9 km/h 92 % 0.0 mm 0 W/m2
04:55 11.1 °C 9.9 °C 1011.7 hPa West 3.2 km/h 20.9 km/h 92 % 0.0 mm 0 W/m2
05:00 11.2 °C 9.9 °C 1011.7 hPa WNW 4.8 km/h 16.1 km/h 92 % 0.0 mm 0 W/m2
05:05 11.2 °C 9.9 °C 1011.7 hPa SW 6.4 km/h 20.9 km/h 92 % 0.0 mm 0 W/m2
05:10 11.2 °C 9.9 °C 1011.7 hPa West 12.9 km/h 20.9 km/h 92 % 0.0 mm 0 W/m2
05:20 11.1 °C 9.8 °C 1011.4 hPa WSW 9.7 km/h 19.3 km/h 92 % 0.0 mm 0 W/m2
05:25 10.9 °C 9.7 °C 1011.4 hPa WSW 19.3 km/h 19.3 km/h 92 % 0.0 mm 0 W/m2
05:30 10.9 °C 9.7 °C 1011.4 hPa SSW 11.3 km/h 19.3 km/h 92 % 0.0 mm 0 W/m2
05:35 11.0 °C 9.7 °C 1011.4 hPa West 9.7 km/h 20.9 km/h 92 % 0.0 mm 0 W/m2
05:40 11.1 °C 9.8 °C 1011.4 hPa West 11.3 km/h 20.9 km/h 92 % 0.0 mm 0 W/m2
05:45 11.1 °C 9.8 °C 1011.4 hPa SSW 3.2 km/h 17.7 km/h 92 % 0.0 mm 0 W/m2
05:50 11.0 °C 9.7 °C 1011.4 hPa WSW 8.0 km/h 14.5 km/h 92 % 0.0 mm 0 W/m2
05:55 11.1 °C 9.8 °C 1011.4 hPa West 4.8 km/h 14.5 km/h 92 % 0.0 mm 0 W/m2
06:00 11.1 °C 9.8 °C 1011.4 hPa West 6.4 km/h 16.1 km/h 92 % 0.0 mm 0 W/m2
06:05 11.0 °C 9.7 °C 1011.1 hPa WSW 6.4 km/h 16.1 km/h 92 % 0.0 mm 0 W/m2
06:10 10.9 °C 9.7 °C 1011.4 hPa WSW 3.2 km/h 17.7 km/h 92 % 0.0 mm 0 W/m2
06:15 10.9 °C 9.7 °C 1011.4 hPa SW 3.2 km/h 17.7 km/h 92 % 0.0 mm 0 W/m2
06:20 10.9 °C 9.7 °C 1011.4 hPa WSW 8.0 km/h 14.5 km/h 92 % 0.0 mm 0 W/m2
06:25 10.9 °C 9.7 °C 1011.4 hPa WSW 9.7 km/h 17.7 km/h 92 % 0.0 mm 0 W/m2
06:30 11.0 °C 9.7 °C 1011.4 hPa SW 8.0 km/h 17.7 km/h 92 % 0.0 mm 0 W/m2
06:35 11.0 °C 9.7 °C 1011.4 hPa SW 6.4 km/h 17.7 km/h 92 % 0.0 mm 0 W/m2
06:40 11.0 °C 9.7 °C 1011.4 hPa WSW 3.2 km/h 17.7 km/h 92 % 0.0 mm 0 W/m2
06:45 10.9 °C 9.7 °C 1011.4 hPa WSW 8.0 km/h 16.1 km/h 92 % 0.0 mm 0 W/m2
06:50 10.9 °C 9.6 °C 1011.4 hPa SW 6.4 km/h 14.5 km/h 92 % 0.0 mm 0 W/m2
06:55 10.9 °C 9.6 °C 1011.1 hPa West 4.8 km/h 14.5 km/h 92 % 0.0 mm 0 W/m2
07:00 10.9 °C 9.7 °C 1011.1 hPa WSW 6.4 km/h 17.7 km/h 92 % 0.0 mm 0 W/m2
07:05 10.9 °C 9.7 °C 1011.1 hPa West 4.8 km/h 17.7 km/h 92 % 0.0 mm 0 W/m2
07:10 10.8 °C 9.7 °C 1011.1 hPa West 3.2 km/h 8.0 km/h 93 % 0.0 mm 0 W/m2
07:15 10.5 °C 9.3 °C 1011.4 hPa WSW 4.8 km/h 11.3 km/h 92 % 0.0 mm 0 W/m2
07:20 10.1 °C 8.8 °C 1011.1 hPa WNW 3.2 km/h 11.3 km/h 92 % 0.0 mm 0 W/m2
07:25 9.7 °C 8.5 °C 1011.1 hPa WSW 6.4 km/h 9.7 km/h 92 % 0.0 mm 0 W/m2
07:30 9.4 °C 8.2 °C 1011.1 hPa West 4.8 km/h 12.9 km/h 92 % 0.0 mm 0 W/m2
07:35 9.3 °C 8.1 °C 1011.4 hPa West 3.2 km/h 12.9 km/h 92 % 0.0 mm 0 W/m2
07:40 9.3 °C 8.0 °C 1011.4 hPa West 9.7 km/h 14.5 km/h 92 % 0.0 mm 0 W/m2
07:45 9.4 °C 8.2 °C 1011.4 hPa West 3.2 km/h 14.5 km/h 92 % 0.0 mm 0 W/m2
07:50 9.6 °C 8.4 °C 1011.4 hPa WSW 3.2 km/h 12.9 km/h 92 % 0.0 mm 0 W/m2
07:55 9.8 °C 8.5 °C 1011.4 hPa West 4.8 km/h 14.5 km/h 92 % 0.0 mm 5 W/m2
08:00 9.8 °C 8.5 °C 1011.4 hPa SW 1.6 km/h 14.5 km/h 92 % 0.0 mm 9 W/m2
08:05 9.8 °C 8.5 °C 1011.4 hPa WSW 6.4 km/h 12.9 km/h 92 % 0.0 mm 11 W/m2
08:10 9.8 °C 8.6 °C 1011.4 hPa West 1.6 km/h 9.7 km/h 92 % 0.0 mm 16 W/m2
08:15 9.8 °C 8.6 °C 1011.4 hPa WSW 4.8 km/h 12.9 km/h 92 % 0.0 mm 18 W/m2
08:20 9.8 °C 8.6 °C 1011.4 hPa West 4.8 km/h 12.9 km/h 92 % 0.0 mm 18 W/m2
08:25 9.9 °C 8.6 °C 1011.4 hPa Calm   12.9 km/h 92 % 0.0 mm 18 W/m2
08:30 9.8 °C 8.8 °C 1011.4 hPa WSW 3.2 km/h 9.7 km/h 93 % 0.0 mm 28 W/m2
08:35 9.9 °C 8.9 °C 1011.7 hPa WSW 9.7 km/h 9.7 km/h 93 % 0.0 mm 21 W/m2
08:40 9.9 °C 8.9 °C 1011.7 hPa WSW 8.0 km/h 11.3 km/h 93 % 0.0 mm 44 W/m2
08:45 10.2 °C 9.1 °C 1011.7 hPa West 3.2 km/h 11.3 km/h 93 % 0.0 mm 93 W/m2
08:50 10.4 °C 9.4 °C 1011.7 hPa SSW 4.8 km/h 11.3 km/h 93 % 0.0 mm 144 W/m2
08:55 10.8 °C 9.5 °C 1011.7 hPa WSW 11.3 km/h 11.3 km/h 92 % 0.0 mm 109 W/m2
09:00 10.9 °C 9.7 °C 1011.7 hPa SW 11.3 km/h 12.9 km/h 92 % 0.0 mm 114 W/m2
09:05 11.2 °C 9.8 °C 1011.7 hPa West 8.0 km/h 12.9 km/h 91 % 0.0 mm 178 W/m2
09:10 11.3 °C 9.7 °C 1012.1 hPa West 8.0 km/h 19.3 km/h 90 % 0.0 mm 130 W/m2
09:15 11.3 °C 9.5 °C 1012.1 hPa WSW 14.5 km/h 19.3 km/h 89 % 0.0 mm 313 W/m2
09:20 11.5 °C 9.7 °C 1012.1 hPa WNW 8.0 km/h 19.3 km/h 89 % 0.0 mm 285 W/m2
09:30 11.9 °C 9.8 °C 1012.1 hPa NW 4.8 km/h 16.1 km/h 87 % 0.0 mm 371 W/m2
09:35 12.1 °C 9.8 °C 1012.1 hPa West 4.8 km/h 16.1 km/h 86 % 0.0 mm 445 W/m2
09:40 12.3 °C 10.1 °C 1012.1 hPa WSW 4.8 km/h 14.5 km/h 86 % 0.0 mm 427 W/m2
09:45 12.3 °C 10.1 °C 1012.4 hPa SW 8.0 km/h 20.9 km/h 86 % 0.0 mm 251 W/m2
09:50 12.1 °C 9.8 °C 1012.4 hPa SW 6.4 km/h 20.9 km/h 86 % 0.3 mm 387 W/m2
09:55 12.3 °C 10.0 °C 1012.4 hPa WNW 14.5 km/h 17.7 km/h 86 % 0.3 mm 311 W/m2
10:05 11.9 °C 9.8 °C 1012.4 hPa West 6.4 km/h 14.5 km/h 87 % 0.3 mm 199 W/m2
10:10 12.1 °C 10.2 °C 1012.4 hPa WSW 8.0 km/h 12.9 km/h 88 % 0.3 mm 446 W/m2
10:15 12.3 °C 10.4 °C 1012.4 hPa WSW 9.7 km/h 12.9 km/h 88 % 0.3 mm 336 W/m2
10:20 12.3 °C 10.2 °C 1012.4 hPa WNW 11.3 km/h 14.5 km/h 87 % 0.3 mm 417 W/m2
10:25 12.4 °C 10.2 °C 1012.4 hPa WNW 8.0 km/h 14.5 km/h 86 % 0.3 mm 213 W/m2
10:30 12.3 °C 10.0 °C 1012.8 hPa West 4.8 km/h 19.3 km/h 86 % 0.3 mm 424 W/m2
10:35 12.4 °C 10.2 °C 1012.8 hPa WSW 4.8 km/h 19.3 km/h 86 % 0.3 mm 443 W/m2
10:40 12.7 °C 10.6 °C 1012.8 hPa West 6.4 km/h 17.7 km/h 87 % 0.3 mm 445 W/m2
10:45 13.0 °C 10.7 °C 1012.8 hPa WSW 8.0 km/h 17.7 km/h 86 % 0.3 mm 457 W/m2
10:50 13.1 °C 10.6 °C 1012.8 hPa West 9.7 km/h 17.7 km/h 85 % 0.0 mm 471 W/m2
10:55 13.1 °C 10.6 °C 1012.8 hPa WNW 3.2 km/h 17.7 km/h 85 % 0.0 mm 487 W/m2
11:00 12.9 °C 10.5 °C 1012.8 hPa WSW 9.7 km/h 19.3 km/h 85 % 0.0 mm 499 W/m2
11:05 12.7 °C 10.4 °C 1012.8 hPa West 9.7 km/h 20.9 km/h 86 % 0.0 mm 512 W/m2
11:10 12.7 °C 10.2 °C 1012.8 hPa WSW 14.5 km/h 20.9 km/h 85 % 0.0 mm 526 W/m2
11:15 12.8 °C 10.7 °C 1012.8 hPa WSW 9.7 km/h 20.9 km/h 87 % 0.0 mm 538 W/m2
11:20 13.2 °C 10.9 °C 1012.8 hPa WSW 17.7 km/h 24.1 km/h 86 % 0.0 mm 552 W/m2
11:25 13.2 °C 10.9 °C 1012.8 hPa WSW 11.3 km/h 24.1 km/h 86 % 0.0 mm 568 W/m2
11:30 13.2 °C 10.5 °C 1012.8 hPa WSW 22.5 km/h 25.7 km/h 84 % 0.0 mm 575 W/m2
11:35 13.2 °C 10.5 °C 1013.1 hPa WSW 19.3 km/h 25.7 km/h 84 % 0.0 mm 591 W/m2
11:40 13.1 °C 10.5 °C 1012.8 hPa South 9.7 km/h 24.1 km/h 84 % 0.0 mm 605 W/m2
11:45 13.5 °C 10.7 °C 1012.8 hPa West 3.2 km/h 20.9 km/h 83 % 0.0 mm 610 W/m2
11:50 13.6 °C 10.5 °C 1012.8 hPa South 4.8 km/h 16.1 km/h 82 % 0.0 mm 622 W/m2
11:55 13.3 °C 10.3 °C 1012.8 hPa SSW 4.8 km/h 22.5 km/h 82 % 0.0 mm 629 W/m2
12:00 13.4 °C 10.4 °C 1012.8 hPa West 1.6 km/h 22.5 km/h 82 % 0.0 mm 636 W/m2
12:05 13.8 °C 10.8 °C 1012.8 hPa West 14.5 km/h 19.3 km/h 82 % 0.0 mm 649 W/m2
12:10 13.7 °C 10.3 °C 1012.8 hPa West 11.3 km/h 17.7 km/h 80 % 0.0 mm 657 W/m2
12:15 13.4 °C 10.0 °C 1013.1 hPa WSW 19.3 km/h 24.1 km/h 80 % 0.0 mm 664 W/m2
12:20 13.5 °C 10.1 °C 1012.8 hPa WSW 12.9 km/h 24.1 km/h 80 % 0.0 mm 684 W/m2
12:25 13.3 °C 9.9 °C 1012.8 hPa WSW 9.7 km/h 25.7 km/h 80 % 0.0 mm 686 W/m2
12:30 13.7 °C 10.1 °C 1012.8 hPa WNW 17.7 km/h 25.7 km/h 79 % 0.0 mm 694 W/m2
12:35 13.3 °C 9.8 °C 1012.8 hPa West 8.0 km/h 22.5 km/h 79 % 0.0 mm 698 W/m2
12:40 13.4 °C 9.6 °C 1013.1 hPa WNW 11.3 km/h 22.5 km/h 78 % 0.0 mm 705 W/m2
12:45 13.2 °C 9.3 °C 1013.1 hPa West 9.7 km/h 20.9 km/h 77 % 0.0 mm 714 W/m2
12:50 13.3 °C 9.8 °C 1013.1 hPa West 8.0 km/h 20.9 km/h 79 % 0.0 mm 721 W/m2
12:55 13.9 °C 10.9 °C 1013.1 hPa West 6.4 km/h 20.9 km/h 82 % 0.0 mm 728 W/m2
13:00 13.8 °C 9.8 °C 1013.1 hPa West 11.3 km/h 27.4 km/h 77 % 0.0 mm 510 W/m2
13:05 13.3 °C 10.1 °C 1013.1 hPa WNW 8.0 km/h 27.4 km/h 81 % 0.0 mm 766 W/m2
13:10 13.8 °C 10.3 °C 1013.1 hPa West 9.7 km/h 22.5 km/h 79 % 0.0 mm 803 W/m2
13:15 13.6 °C 10.0 °C 1013.1 hPa WSW 12.9 km/h 20.9 km/h 79 % 0.0 mm 758 W/m2
13:20 13.6 °C 9.4 °C 1013.1 hPa West 3.2 km/h 20.9 km/h 76 % 0.0 mm 758 W/m2
13:25 13.7 °C 9.7 °C 1013.1 hPa West 14.5 km/h 20.9 km/h 77 % 0.0 mm 800 W/m2
13:30 13.6 °C 9.0 °C 1013.1 hPa WSW 17.7 km/h 22.5 km/h 74 % 0.0 mm 867 W/m2
13:35 13.4 °C 9.4 °C 1013.1 hPa West 19.3 km/h 22.5 km/h 77 % 0.0 mm 835 W/m2
13:40 13.7 °C 9.7 °C 1013.1 hPa West 9.7 km/h 24.1 km/h 77 % 0.0 mm 956 W/m2
13:50 13.9 °C 9.7 °C 1013.1 hPa West 14.5 km/h 24.1 km/h 76 % 0.0 mm 394 W/m2
13:55 13.7 °C 9.5 °C 1013.4 hPa West 9.7 km/h 25.7 km/h 76 % 0.0 mm 763 W/m2
14:00 13.6 °C 9.5 °C 1013.4 hPa WNW 9.7 km/h 25.7 km/h 76 % 0.0 mm 761 W/m2
14:05 13.8 °C 10.3 °C 1013.1 hPa WSW 12.9 km/h 27.4 km/h 79 % 0.0 mm 814 W/m2
14:10 13.8 °C 10.3 °C 1013.1 hPa WSW 17.7 km/h 27.4 km/h 79 % 0.0 mm 773 W/m2
14:15 13.5 °C 9.2 °C 1013.4 hPa WNW 6.4 km/h 30.6 km/h 75 % 0.0 mm 759 W/m2
14:20 13.9 °C 10.1 °C 1013.4 hPa West 20.9 km/h 30.6 km/h 78 % 0.0 mm 761 W/m2
14:25 14.6 °C 11.0 °C 1013.4 hPa WNW 12.9 km/h 22.5 km/h 79 % 0.0 mm 761 W/m2
14:30 14.7 °C 10.9 °C 1013.4 hPa WNW 1.6 km/h 22.5 km/h 78 % 0.0 mm 751 W/m2
14:35 14.7 °C 10.7 °C 1013.4 hPa NNW 8.0 km/h 22.5 km/h 77 % 0.0 mm 738 W/m2
14:40 14.7 °C 10.9 °C 1013.4 hPa WNW 20.9 km/h 25.7 km/h 78 % 0.0 mm 766 W/m2
14:45 14.2 °C 10.8 °C 1013.1 hPa SW 11.3 km/h 25.7 km/h 80 % 0.0 mm 770 W/m2
14:50 14.2 °C 10.4 °C 1013.4 hPa West 11.3 km/h 22.5 km/h 78 % 0.0 mm 802 W/m2
14:55 13.7 °C 9.9 °C 1013.4 hPa West 8.0 km/h 29.0 km/h 78 % 0.0 mm 729 W/m2
15:00 14.1 °C 10.5 °C 1013.4 hPa West 22.5 km/h 29.0 km/h 79 % 0.0 mm 756 W/m2
15:05 13.9 °C 10.5 °C 1013.4 hPa West 3.2 km/h 24.1 km/h 80 % 0.0 mm 773 W/m2
15:10 14.2 °C 10.6 °C 1013.1 hPa WSW 6.4 km/h 24.1 km/h 79 % 0.0 mm 751 W/m2
15:15 14.3 °C 10.9 °C 1013.4 hPa West 14.5 km/h 22.5 km/h 80 % 0.0 mm 798 W/m2
15:20 14.1 °C 10.3 °C 1013.4 hPa NW 22.5 km/h 25.7 km/h 78 % 0.0 mm 765 W/m2
15:25 13.9 °C 10.3 °C 1013.1 hPa NW 30.6 km/h 32.2 km/h 79 % 0.0 mm 728 W/m2
15:30 14.0 °C 10.8 °C 1013.1 hPa WNW 9.7 km/h 32.2 km/h 81 % 0.0 mm 429 W/m2
15:35 14.2 °C 11.0 °C 1013.1 hPa WSW 9.7 km/h 30.6 km/h 81 % 0.0 mm 879 W/m2
15:40 13.9 °C 10.1 °C 1013.4 hPa NW 17.7 km/h 29.0 km/h 78 % 0.0 mm 385 W/m2
15:45 13.6 °C 10.2 °C 1013.4 hPa West 14.5 km/h 29.0 km/h 80 % 0.0 mm 348 W/m2
15:50 14.1 °C 10.8 °C 1013.4 hPa West 11.3 km/h 27.4 km/h 81 % 0.0 mm 724 W/m2
15:55 14.1 °C 10.3 °C 1013.4 hPa West 20.9 km/h 27.4 km/h 78 % 0.0 mm 693 W/m2
16:00 14.6 °C 11.1 °C 1013.1 hPa WNW 20.9 km/h 27.4 km/h 80 % 0.0 mm 693 W/m2
16:05 14.5 °C 10.5 °C 1013.4 hPa West 12.9 km/h 27.4 km/h 77 % 0.0 mm 673 W/m2
16:10 14.2 °C 10.0 °C 1013.4 hPa WNW 14.5 km/h 30.6 km/h 76 % 0.0 mm 656 W/m2
16:15 14.0 °C 10.6 °C 1013.4 hPa WNW 6.4 km/h 30.6 km/h 80 % 0.0 mm 666 W/m2
16:20 14.3 °C 10.1 °C 1013.4 hPa West 11.3 km/h 30.6 km/h 76 % 0.0 mm 638 W/m2
16:25 14.1 °C 10.3 °C 1013.4 hPa West 12.9 km/h 27.4 km/h 78 % 0.0 mm 626 W/m2
16:30 14.1 °C 10.1 °C 1013.4 hPa West 8.0 km/h 27.4 km/h 77 % 0.0 mm 613 W/m2
16:35 14.7 °C 11.1 °C 1013.4 hPa NW 11.3 km/h 24.1 km/h 79 % 0.0 mm 580 W/m2
16:40 14.1 °C 10.1 °C 1013.4 hPa West 16.1 km/h 27.4 km/h 77 % 0.0 mm 610 W/m2
16:45 14.1 °C 10.3 °C 1013.4 hPa West 14.5 km/h 27.4 km/h 78 % 0.0 mm 598 W/m2
16:50 13.8 °C 10.3 °C 1013.4 hPa WSW 11.3 km/h 25.7 km/h 79 % 0.0 mm 575 W/m2
16:55 14.1 °C 10.3 °C 1013.4 hPa NW 9.7 km/h 29.0 km/h 78 % 0.0 mm 571 W/m2
17:00 13.5 °C 10.1 °C 1013.4 hPa WNW 8.0 km/h 32.2 km/h 80 % 0.0 mm 628 W/m2
17:05 13.3 °C 10.1 °C 1013.4 hPa West 19.3 km/h 32.2 km/h 81 % 0.0 mm 292 W/m2
17:10 13.8 °C 10.6 °C 1013.4 hPa NW 17.7 km/h 30.6 km/h 81 % 0.0 mm 677 W/m2
17:15 13.8 °C 10.4 °C 1013.4 hPa SW 6.4 km/h 30.6 km/h 80 % 0.0 mm 664 W/m2
17:20 14.2 °C 11.0 °C 1013.4 hPa WNW 11.3 km/h 29.0 km/h 81 % 0.0 mm 422 W/m2
17:25 14.3 °C 10.5 °C 1013.4 hPa West 14.5 km/h 25.7 km/h 78 % 0.0 mm 506 W/m2
17:30 14.2 °C 10.4 °C 1013.4 hPa West 16.1 km/h 29.0 km/h 78 % 0.0 mm 373 W/m2
17:35 14.0 °C 10.6 °C 1013.4 hPa West 6.4 km/h 29.0 km/h 80 % 0.0 mm 239 W/m2
17:40 14.1 °C 10.5 °C 1013.4 hPa WNW 8.0 km/h 29.0 km/h 79 % 0.0 mm 244 W/m2
17:45 14.2 °C 10.6 °C 1013.4 hPa West 9.7 km/h 25.7 km/h 79 % 0.0 mm 204 W/m2
17:50 13.9 °C 9.9 °C 1013.4 hPa NW 22.5 km/h 30.6 km/h 77 % 0.0 mm 285 W/m2
17:55 13.8 °C 10.4 °C 1013.4 hPa NW 12.9 km/h 30.6 km/h 80 % 0.0 mm 197 W/m2
18:00 13.8 °C 10.0 °C 1013.4 hPa WNW 11.3 km/h 30.6 km/h 78 % 0.0 mm 172 W/m2
18:05 13.6 °C 10.0 °C 1013.4 hPa West 11.3 km/h 30.6 km/h 79 % 0.0 mm 197 W/m2
18:10 13.4 °C 10.1 °C 1013.4 hPa WNW 17.7 km/h 25.7 km/h 80 % 0.0 mm 202 W/m2
18:15 13.3 °C 10.1 °C 1013.4 hPa WNW 11.3 km/h 30.6 km/h 81 % 0.0 mm 234 W/m2
18:20 13.3 °C 9.8 °C 1013.4 hPa WNW 9.7 km/h 30.6 km/h 79 % 0.0 mm 207 W/m2
18:25 13.3 °C 10.1 °C 1013.4 hPa WNW 11.3 km/h 22.5 km/h 81 % 0.0 mm 193 W/m2
18:30 13.2 °C 10.3 °C 1013.4 hPa WNW 12.9 km/h 29.0 km/h 83 % 0.0 mm 183 W/m2
18:35 13.1 °C 10.1 °C 1013.4 hPa WNW 19.3 km/h 29.0 km/h 82 % 0.0 mm 302 W/m2
18:40 13.3 °C 10.5 °C 1013.4 hPa WSW 16.1 km/h 29.0 km/h 83 % 0.0 mm 221 W/m2
18:45 13.3 °C 10.3 °C 1013.8 hPa WNW 9.7 km/h 27.4 km/h 82 % 0.0 mm 162 W/m2
18:50 13.3 °C 10.0 °C 1013.8 hPa WNW 11.3 km/h 29.0 km/h 80 % 0.0 mm 139 W/m2
18:55 13.2 °C 9.8 °C 1013.8 hPa WNW 19.3 km/h 29.0 km/h 80 % 0.0 mm 88 W/m2
19:00 13.1 °C 9.9 °C 1013.8 hPa NW 17.7 km/h 30.6 km/h 81 % 0.0 mm 77 W/m2
19:05 13.0 °C 9.8 °C 1013.8 hPa WNW 14.5 km/h 30.6 km/h 81 % 0.0 mm 77 W/m2
19:10 12.9 °C 9.9 °C 1013.8 hPa WNW 14.5 km/h 25.7 km/h 82 % 0.0 mm 69 W/m2
19:15 12.8 °C 9.8 °C 1013.8 hPa WSW 12.9 km/h 25.7 km/h 82 % 0.0 mm 69 W/m2
19:20 12.6 °C 9.6 °C 1013.8 hPa WSW 11.3 km/h 25.7 km/h 82 % 0.0 mm 69 W/m2
19:25 12.6 °C 9.7 °C 1013.8 hPa WNW 16.1 km/h 35.4 km/h 83 % 0.0 mm 91 W/m2
19:30 12.7 °C 9.9 °C 1014.1 hPa NW 9.7 km/h 35.4 km/h 83 % 0.0 mm 104 W/m2
19:35 12.8 °C 10.0 °C 1014.1 hPa West 6.4 km/h 20.9 km/h 83 % 0.0 mm 95 W/m2
19:40 12.7 °C 9.7 °C 1014.1 hPa WNW 4.8 km/h 25.7 km/h 82 % 0.0 mm 70 W/m2
19:45 12.5 °C 9.5 °C 1014.1 hPa North 8.0 km/h 25.7 km/h 82 % 0.0 mm 40 W/m2
19:50 12.3 °C 9.5 °C 1014.1 hPa NW 12.9 km/h 25.7 km/h 83 % 0.0 mm 30 W/m2
19:55 12.1 °C 9.3 °C 1014.1 hPa WNW 6.4 km/h 24.1 km/h 83 % 0.0 mm 28 W/m2
20:00 11.9 °C 9.3 °C 1014.1 hPa NNW 11.3 km/h 25.7 km/h 84 % 0.0 mm 33 W/m2
20:05 11.9 °C 9.3 °C 1014.1 hPa NW 19.3 km/h 25.7 km/h 84 % 0.0 mm 42 W/m2
20:10 12.1 °C 9.4 °C 1014.4 hPa NW 35.4 km/h 35.4 km/h 84 % 0.0 mm 39 W/m2
20:15 12.1 °C 9.4 °C 1014.4 hPa WNW 9.7 km/h 35.4 km/h 84 % 0.0 mm 23 W/m2
20:20 12.1 °C 9.6 °C 1014.4 hPa WNW 11.3 km/h 35.4 km/h 85 % 0.0 mm 18 W/m2
20:25 12.0 °C 9.6 °C 1014.4 hPa WNW 9.7 km/h 33.8 km/h 85 % 0.0 mm 18 W/m2
20:30 11.9 °C 9.5 °C 1014.4 hPa WNW 8.0 km/h 25.7 km/h 85 % 0.0 mm 11 W/m2
20:35 11.8 °C 9.6 °C 1014.4 hPa NW 8.0 km/h 25.7 km/h 86 % 0.0 mm 5 W/m2
20:40 11.7 °C 9.5 °C 1014.8 hPa NW 9.7 km/h 22.5 km/h 86 % 0.0 mm 0 W/m2
20:45 11.6 °C 9.5 °C 1014.8 hPa WNW 11.3 km/h 22.5 km/h 87 % 0.0 mm 0 W/m2
20:50 11.6 °C 9.5 °C 1014.8 hPa WNW 8.0 km/h 17.7 km/h 87 % 0.0 mm 0 W/m2
20:55 11.4 °C 9.4 °C 1014.8 hPa NW 6.4 km/h 17.7 km/h 87 % 0.0 mm 0 W/m2
21:00 11.3 °C 9.2 °C 1014.8 hPa NW 4.8 km/h 12.9 km/h 87 % 0.0 mm 0 W/m2
21:05 11.3 °C 9.4 °C 1014.8 hPa NW 9.7 km/h 17.7 km/h 88 % 0.0 mm 0 W/m2
21:10 11.2 °C 9.3 °C 1015.1 hPa NW 8.0 km/h 17.7 km/h 88 % 0.0 mm 0 W/m2
21:15 11.1 °C 9.2 °C 1015.1 hPa WNW 12.9 km/h 19.3 km/h 88 % 0.0 mm 0 W/m2
21:20 11.0 °C 9.1 °C 1015.1 hPa NW 8.0 km/h 19.3 km/h 88 % 0.0 mm 0 W/m2
21:25 10.9 °C 9.0 °C 1015.1 hPa WNW 4.8 km/h 14.5 km/h 88 % 0.0 mm 0 W/m2
21:30 10.8 °C 8.9 °C 1015.1 hPa WNW 3.2 km/h 14.5 km/h 88 % 0.0 mm 0 W/m2
21:35 10.7 °C 8.8 °C 1015.5 hPa NNW 17.7 km/h 17.7 km/h 88 % 0.0 mm 0 W/m2
21:40 10.7 °C 8.8 °C 1015.5 hPa WNW 4.8 km/h 17.7 km/h 88 % 0.0 mm 0 W/m2
21:45 10.7 °C 8.8 °C 1015.5 hPa NW 8.0 km/h 17.7 km/h 88 % 0.0 mm 0 W/m2
21:50 10.7 °C 8.8 °C 1015.8 hPa NW 9.7 km/h 16.1 km/h 88 % 0.0 mm 0 W/m2
21:55 10.7 °C 9.0 °C 1015.8 hPa West 6.4 km/h 29.0 km/h 89 % 0.0 mm 0 W/m2
22:00 10.8 °C 9.1 °C 1015.8 hPa WNW 6.4 km/h 29.0 km/h 89 % 0.0 mm 0 W/m2
22:05 10.8 °C 9.0 °C 1015.8 hPa NW 9.7 km/h 20.9 km/h 89 % 0.0 mm 0 W/m2
22:10 10.7 °C 9.1 °C 1015.8 hPa NNW 12.9 km/h 17.7 km/h 90 % 0.0 mm 0 W/m2
22:15 10.7 °C 9.1 °C 1016.1 hPa North 9.7 km/h 19.3 km/h 90 % 0.0 mm 0 W/m2
22:20 10.6 °C 9.2 °C 1016.1 hPa WNW 9.7 km/h 19.3 km/h 91 % 0.0 mm 0 W/m2
22:25 10.6 °C 9.1 °C 1016.1 hPa NNW 6.4 km/h 19.3 km/h 91 % 0.0 mm 0 W/m2
22:30 10.5 °C 9.1 °C 1016.1 hPa WNW 8.0 km/h 19.3 km/h 91 % 0.0 mm 0 W/m2
22:40 10.3 °C 8.9 °C 1016.1 hPa WNW 4.8 km/h 14.5 km/h 91 % 0.0 mm 0 W/m2
22:45 10.1 °C 8.7 °C 1016.5 hPa NNW 8.0 km/h 12.9 km/h 91 % 0.0 mm 0 W/m2
22:50 10.0 °C 8.8 °C 1016.5 hPa WNW 6.4 km/h 11.3 km/h 92 % 0.0 mm 0 W/m2
22:55 9.9 °C 8.7 °C 1016.5 hPa NW 8.0 km/h 14.5 km/h 92 % 0.0 mm 0 W/m2
23:00 9.8 °C 8.5 °C 1016.5 hPa WNW 4.8 km/h 14.5 km/h 92 % 0.0 mm 0 W/m2
23:05 9.7 °C 8.4 °C 1016.5 hPa WNW 3.2 km/h 9.7 km/h 92 % 0.0 mm 0 W/m2
23:10 9.6 °C 8.5 °C 1016.5 hPa NW 1.6 km/h 9.7 km/h 93 % 0.0 mm 0 W/m2
23:15 9.6 °C 8.3 °C 1016.8 hPa WNW 6.4 km/h 12.9 km/h 92 % 0.0 mm 0 W/m2
23:20 9.5 °C 8.3 °C 1016.8 hPa WNW 6.4 km/h 12.9 km/h 92 % 0.0 mm 0 W/m2
23:25 9.4 °C 8.2 °C 1016.8 hPa WNW 4.8 km/h 9.7 km/h 92 % 0.0 mm 0 W/m2
23:30 9.3 °C 8.0 °C 1016.8 hPa NW 6.4 km/h 12.9 km/h 92 % 0.0 mm 0 W/m2
23:35 9.2 °C 8.1 °C 1016.8 hPa NNW 4.8 km/h 12.9 km/h 93 % 0.0 mm 0 W/m2
23:40 9.1 °C 7.8 °C 1016.8 hPa Calm   11.3 km/h 92 % 0.0 mm 0 W/m2
23:45 8.9 °C 7.9 °C 1017.2 hPa NNW 3.2 km/h 9.7 km/h 93 % 0.0 mm 0 W/m2
23:50 9.0 °C 7.9 °C 1017.2 hPa WNW 3.2 km/h 8.0 km/h 93 % 0.0 mm 0 W/m2
23:55 9.2 °C 8.3 °C 1017.2 hPa Calm   9.7 km/h 94 % 0.0 mm 0 W/m2
Avec l'autorisation de Weather Underground - 1.75 mb